createdAt,value
2022-11-07T00:00:26.050Z,15.82
2022-11-07T00:02:52.848Z,15.00
2022-11-07T00:05:19.443Z,17.17
2022-11-07T00:07:46.050Z,15.40
2022-11-07T00:10:12.631Z,18.15
2022-11-07T00:12:42.611Z,23.33
2022-11-07T00:15:09.630Z,21.10
2022-11-07T00:17:36.205Z,18.38
2022-11-07T00:20:02.888Z,21.00
2022-11-07T00:22:30.493Z,14.73
2022-11-07T00:24:57.119Z,15.73
2022-11-07T00:27:23.744Z,16.80
2022-11-07T00:29:50.394Z,18.40
2022-11-07T00:32:17.001Z,23.85
2022-11-07T00:34:43.568Z,21.23
2022-11-07T00:37:10.120Z,22.27
2022-11-07T00:39:36.780Z,18.98
2022-11-07T00:42:03.616Z,20.95
2022-11-07T00:44:30.189Z,22.50
2022-11-07T00:46:56.734Z,18.40
2022-11-07T00:49:23.303Z,27.63
2022-11-07T00:51:49.873Z,17.98
2022-11-07T00:54:17.525Z,20.42
2022-11-07T00:56:44.128Z,23.33
2022-11-07T00:59:10.784Z,19.50
2022-11-07T01:01:37.668Z,24.77
2022-11-07T01:04:20.107Z,22.65
2022-11-07T01:06:47.064Z,17.58
2022-11-07T01:09:17.195Z,21.58
2022-11-07T01:11:44.844Z,20.95
2022-11-07T01:14:13.935Z,19.15
2022-11-07T01:16:41.980Z,22.10
2022-11-07T01:19:09.439Z,23.17
2022-11-07T01:21:38.970Z,19.77
2022-11-07T01:24:07.982Z,18.15
2022-11-07T01:26:34.714Z,19.80
2022-11-07T01:29:01.433Z,23.15
2022-11-07T01:31:28.228Z,19.45
2022-11-07T01:33:55.000Z,23.73
2022-11-07T01:36:21.576Z,20.60
2022-11-07T01:38:49.235Z,24.45
2022-11-07T01:41:23.024Z,22.55
2022-11-07T01:44:10.219Z,23.10
2022-11-07T01:46:38.111Z,29.23
2022-11-07T01:49:09.602Z,23.58
2022-11-07T01:51:42.905Z,20.33
2022-11-07T01:54:11.392Z,19.77
2022-11-07T01:56:41.355Z,21.83
2022-11-07T01:59:11.033Z,18.67
2022-11-07T02:01:37.812Z,25.02
2022-11-07T02:04:05.669Z,20.35
2022-11-07T02:06:46.519Z,20.73
2022-11-07T02:09:14.066Z,23.73
2022-11-07T02:11:40.912Z,23.77
2022-11-07T02:14:07.709Z,18.90
2022-11-07T02:16:36.291Z,18.30
2022-11-07T02:19:08.508Z,20.90
2022-11-07T02:21:53.849Z,27.13
2022-11-07T02:24:33.244Z,19.33
2022-11-07T02:27:04.833Z,28.30
2022-11-07T02:29:33.522Z,20.08
2022-11-07T02:32:02.365Z,27.38
2022-11-07T02:34:29.007Z,19.85
2022-11-07T02:36:56.569Z,21.10
2022-11-07T02:39:23.411Z,22.90
2022-11-07T02:41:51.209Z,21.83
2022-11-07T02:44:19.131Z,24.25
2022-11-07T02:46:46.822Z,22.77
2022-11-07T02:49:13.417Z,21.60
2022-11-07T02:51:39.992Z,20.08
2022-11-07T02:54:06.631Z,24.00
2022-11-07T02:56:33.202Z,19.00
2022-11-07T02:58:59.834Z,21.38
2022-11-07T03:01:27.587Z,20.30
2022-11-07T03:03:54.464Z,20.55
2022-11-07T03:06:24.692Z,20.40
2022-11-07T03:08:51.939Z,22.98
2022-11-07T03:11:19.771Z,20.92
2022-11-07T03:13:48.416Z,24.55
2022-11-07T03:16:17.027Z,23.75
2022-11-07T03:18:44.152Z,28.05
2022-11-07T03:21:11.062Z,27.60
2022-11-07T03:23:37.905Z,23.80
2022-11-07T03:26:04.745Z,26.35
2022-11-07T03:28:31.970Z,25.27
2022-11-07T03:31:01.510Z,27.48
2022-11-07T03:33:29.356Z,28.58
2022-11-07T03:35:56.012Z,34.00
2022-11-07T03:38:22.914Z,35.45
2022-11-07T03:40:49.683Z,38.08
2022-11-07T03:43:16.649Z,37.67
2022-11-07T03:45:43.537Z,34.53
2022-11-07T03:48:10.087Z,33.90
2022-11-07T03:50:36.800Z,35.28
2022-11-07T03:53:03.413Z,27.02
2022-11-07T03:55:30.133Z,35.47
2022-11-07T03:58:00.525Z,36.20
2022-11-07T04:00:27.369Z,34.22
2022-11-07T04:02:54.170Z,33.17
2022-11-07T04:05:20.846Z,26.13
2022-11-07T04:07:47.413Z,37.45
2022-11-07T04:10:14.013Z,31.73
2022-11-07T04:12:55.846Z,36.20
2022-11-07T04:15:40.989Z,32.53
2022-11-07T04:18:07.609Z,32.40
2022-11-07T04:20:34.210Z,41.33
2022-11-07T04:23:00.811Z,32.65
2022-11-07T04:25:42.641Z,33.58
2022-11-07T04:28:09.250Z,32.83
2022-11-07T04:30:35.851Z,30.88
2022-11-07T04:33:03.247Z,30.83
2022-11-07T04:35:32.439Z,32.72
2022-11-07T04:37:59.818Z,33.70
2022-11-07T04:40:27.766Z,31.90
2022-11-07T04:42:55.263Z,41.30
2022-11-07T04:45:22.292Z,34.20
2022-11-07T04:47:49.309Z,32.25
2022-11-07T04:50:18.681Z,32.25
2022-11-07T04:52:46.805Z,36.45
2022-11-07T04:55:22.233Z,31.58
2022-11-07T04:57:51.429Z,29.40
2022-11-07T05:00:20.186Z,38.10
2022-11-07T05:02:47.920Z,36.10
2022-11-07T05:05:14.666Z,38.45
2022-11-07T05:07:41.932Z,38.25
2022-11-07T05:10:16.259Z,33.25
2022-11-07T05:12:42.835Z,31.27
2022-11-07T05:15:09.741Z,36.58
2022-11-07T05:17:36.316Z,39.50
2022-11-07T05:20:03.054Z,36.55
2022-11-07T05:22:45.044Z,39.50
2022-11-07T05:25:11.633Z,37.97
2022-11-07T05:27:38.439Z,35.63
2022-11-07T05:30:06.309Z,42.45
2022-11-07T05:32:38.141Z,37.65
2022-11-07T05:35:05.695Z,37.08
2022-11-07T05:37:32.338Z,34.47
2022-11-07T05:39:58.929Z,33.60
2022-11-07T05:42:25.521Z,37.10
2022-11-07T05:44:52.110Z,43.85
2022-11-07T05:47:18.683Z,38.30
2022-11-07T05:49:45.278Z,37.53
2022-11-07T05:52:11.856Z,39.15
2022-11-07T05:54:38.712Z,44.55
2022-11-07T05:57:05.255Z,38.78
2022-11-07T05:59:31.830Z,48.70
2022-11-07T06:01:58.476Z,46.60
2022-11-07T06:04:25.133Z,38.58
2022-11-07T06:06:51.742Z,39.28
2022-11-07T06:09:18.320Z,40.05
2022-11-07T06:11:45.355Z,43.63
2022-11-07T06:14:11.918Z,41.28
2022-11-07T06:16:38.503Z,31.98
2022-11-07T06:19:05.334Z,39.40
2022-11-07T06:21:32.272Z,43.00
2022-11-07T06:23:59.355Z,43.13
2022-11-07T06:26:26.685Z,39.45
2022-11-07T06:28:56.819Z,39.70
2022-11-07T06:31:23.544Z,44.08
2022-11-07T06:33:51.343Z,40.78
2022-11-07T06:36:18.230Z,41.50
2022-11-07T06:38:44.832Z,43.97
2022-11-07T06:41:14.050Z,39.47
2022-11-07T06:43:40.838Z,44.05
2022-11-07T06:46:10.478Z,41.15
2022-11-07T06:48:37.080Z,47.67
2022-11-07T06:51:05.961Z,39.60
2022-11-07T06:53:33.218Z,42.25
2022-11-07T06:56:00.783Z,46.65
2022-11-07T06:58:27.691Z,49.30
2022-11-07T07:00:58.534Z,36.53
2022-11-07T07:03:25.250Z,41.35
2022-11-07T07:05:51.847Z,38.53
2022-11-07T07:08:18.528Z,44.88
2022-11-07T07:10:46.043Z,45.50
2022-11-07T07:13:14.585Z,49.20
2022-11-07T07:15:50.758Z,46.40
2022-11-07T07:18:18.996Z,51.25
2022-11-07T07:20:46.713Z,50.63
2022-11-07T07:23:13.293Z,48.60
2022-11-07T07:25:39.875Z,44.65
2022-11-07T07:28:06.433Z,45.92
2022-11-07T07:30:33.073Z,49.22
2022-11-07T07:32:59.719Z,47.47
2022-11-07T07:35:26.511Z,44.47
2022-11-07T07:37:53.302Z,42.72
2022-11-07T07:40:20.836Z,47.10
2022-11-07T07:42:47.854Z,40.88
2022-11-07T07:45:16.002Z,46.72
2022-11-07T07:47:42.848Z,46.22
2022-11-07T07:50:12.019Z,57.78
2022-11-07T07:52:38.830Z,55.13
2022-11-07T07:55:07.981Z,54.97
2022-11-07T07:57:39.616Z,46.78
2022-11-07T08:00:11.709Z,51.45
2022-11-07T08:02:39.025Z,57.95
2022-11-07T08:05:06.217Z,47.38
2022-11-07T08:07:32.800Z,44.78
2022-11-07T08:10:05.418Z,43.67
2022-11-07T08:12:46.480Z,46.53
2022-11-07T08:15:14.200Z,49.53
2022-11-07T08:17:44.909Z,39.70
2022-11-07T08:20:14.678Z,50.90
2022-11-07T08:22:41.614Z,47.00
2022-11-07T08:25:10.374Z,41.25
2022-11-07T08:27:37.656Z,43.67
2022-11-07T08:30:07.124Z,36.75
2022-11-07T08:32:34.403Z,41.70
2022-11-07T08:35:01.108Z,46.85
2022-11-07T08:37:27.660Z,44.28
2022-11-07T08:39:54.235Z,43.78
2022-11-07T08:42:20.859Z,47.60
2022-11-07T08:44:47.470Z,47.78
2022-11-07T08:47:14.077Z,54.65
2022-11-07T08:49:40.662Z,48.65
2022-11-07T08:52:07.263Z,49.60
2022-11-07T08:54:33.913Z,44.72
2022-11-07T08:57:01.276Z,45.58
2022-11-07T08:59:29.298Z,40.60
2022-11-07T09:02:39.077Z,47.53
2022-11-07T09:04:42.949Z,37.63
2022-11-07T09:07:09.650Z,30.02
2022-11-07T09:09:36.307Z,34.53
2022-11-07T09:12:02.948Z,41.35
2022-11-07T09:14:29.567Z,25.77
2022-11-07T09:16:56.129Z,34.30
2022-11-07T09:19:22.728Z,38.47
2022-11-07T09:21:49.342Z,25.70
2022-11-07T09:24:15.926Z,28.42
2022-11-07T09:26:42.638Z,21.98
2022-11-07T09:29:09.255Z,20.10
2022-11-07T09:31:36.283Z,21.52
2022-11-07T09:34:02.886Z,34.00
2022-11-07T09:36:29.529Z,24.55
2022-11-07T09:38:57.240Z,27.25
2022-11-07T09:41:39.212Z,29.10
2022-11-07T09:44:32.352Z,32.90
2022-11-07T09:47:14.667Z,35.75
2022-11-07T09:49:46.452Z,36.05
2022-11-07T09:52:16.968Z,24.58
2022-11-07T09:54:48.900Z,34.10
2022-11-07T09:57:17.589Z,35.90
2022-11-07T09:59:53.153Z,33.20
2022-11-07T10:02:24.005Z,27.35
2022-11-07T10:04:56.843Z,32.08
2022-11-07T10:07:53.872Z,31.92
2022-11-07T10:10:46.643Z,31.45
2022-11-07T10:13:28.471Z,27.13
2022-11-07T10:16:06.379Z,29.65
2022-11-07T10:18:52.883Z,27.90
2022-11-07T10:21:41.526Z,28.20
2022-11-07T10:24:27.078Z,31.00
2022-11-07T10:26:53.950Z,18.45
2022-11-07T10:29:24.339Z,21.48
2022-11-07T10:32:13.379Z,16.42
2022-11-07T10:34:50.242Z,16.92
2022-11-07T10:37:21.127Z,16.48
2022-11-07T10:39:47.757Z,13.55
2022-11-07T10:42:19.882Z,16.35
2022-11-07T10:44:47.817Z,14.98
2022-11-07T10:47:21.581Z,13.63
2022-11-07T10:50:16.892Z,16.15
2022-11-07T10:52:52.715Z,14.57
2022-11-07T10:55:19.447Z,18.45
2022-11-07T10:57:50.630Z,12.05
2022-11-07T11:00:23.413Z,12.40
2022-11-07T11:02:51.805Z,16.40
2022-11-07T11:05:40.792Z,15.13
2022-11-07T11:08:20.121Z,13.18
2022-11-07T11:10:47.905Z,16.40
2022-11-07T11:13:32.317Z,11.82
2022-11-07T11:16:07.987Z,12.35
2022-11-07T11:18:34.566Z,12.35
2022-11-07T11:21:03.179Z,15.88
2022-11-07T11:23:35.376Z,12.50
2022-11-07T11:26:07.428Z,11.68
2022-11-07T11:28:38.213Z,11.25
2022-11-07T11:31:14.283Z,12.80
2022-11-07T11:33:47.328Z,15.82
2022-11-07T11:36:19.300Z,9.07
2022-11-07T11:38:54.827Z,9.25
2022-11-07T11:41:31.657Z,14.05
2022-11-07T11:44:04.862Z,11.07
2022-11-07T11:46:43.044Z,12.30
2022-11-07T11:49:17.850Z,11.98
2022-11-07T11:51:53.498Z,8.15
2022-11-07T11:54:20.219Z,13.32
2022-11-07T11:56:59.624Z,14.80
2022-11-07T11:59:51.151Z,9.68
2022-11-07T12:02:45.405Z,15.13
2022-11-07T12:05:47.414Z,10.75
2022-11-07T12:08:30.589Z,10.98
2022-11-07T12:11:13.390Z,10.52
2022-11-07T12:14:00.954Z,9.02
2022-11-07T12:16:41.110Z,10.93
2022-11-07T12:19:36.959Z,13.15
2022-11-07T12:22:16.824Z,9.63
2022-11-07T12:24:44.365Z,14.63
2022-11-07T12:27:34.312Z,9.63
2022-11-07T12:30:22.166Z,10.57
2022-11-07T12:33:23.969Z,10.13
2022-11-07T12:35:54.670Z,12.20
2022-11-07T12:38:37.729Z,13.52
2022-11-07T12:41:28.476Z,16.70
2022-11-07T12:43:55.022Z,22.65
2022-11-07T12:46:46.020Z,13.38
2022-11-07T12:49:27.882Z,11.70
2022-11-07T12:52:09.683Z,7.45
2022-11-07T12:54:56.621Z,10.32
2022-11-07T12:57:27.241Z,7.45
2022-11-07T13:00:01.477Z,8.20
2022-11-07T13:02:36.923Z,7.80
2022-11-07T13:05:17.202Z,8.50
2022-11-07T13:07:53.521Z,11.50
2022-11-07T13:10:28.601Z,10.93
2022-11-07T13:13:16.173Z,12.57
2022-11-07T13:16:13.655Z,12.82
2022-11-07T13:18:30.040Z,13.40
2022-11-07T13:21:04.022Z,8.88
2022-11-07T13:23:30.965Z,6.88
2022-11-07T13:26:00.016Z,8.15
2022-11-07T13:28:43.021Z,8.00
2022-11-07T13:31:31.897Z,5.80
2022-11-07T13:34:24.818Z,7.72
2022-11-07T13:36:57.092Z,7.53
2022-11-07T13:39:24.785Z,7.18
2022-11-07T13:41:52.948Z,5.00
2022-11-07T13:44:26.065Z,10.48
2022-11-07T13:46:56.637Z,6.03
2022-11-07T13:49:43.989Z,6.07
2022-11-07T13:52:20.622Z,5.22
2022-11-07T13:54:51.262Z,7.43
2022-11-07T13:57:27.673Z,10.40
2022-11-07T14:00:14.536Z,9.48
2022-11-07T14:02:54.685Z,8.38
2022-11-07T14:05:24.117Z,5.30
2022-11-07T14:07:55.657Z,4.88
2022-11-07T14:10:29.648Z,12.70
2022-11-07T14:13:07.339Z,6.32
2022-11-07T14:15:36.659Z,4.95
2022-11-07T14:18:04.463Z,15.85
2022-11-07T14:20:31.135Z,10.80
2022-11-07T14:23:00.739Z,5.60
2022-11-07T14:25:32.037Z,10.60
2022-11-07T14:27:59.636Z,5.97
2022-11-07T14:30:28.530Z,10.52
2022-11-07T14:33:00.029Z,9.60
2022-11-07T14:35:33.667Z,7.40
2022-11-07T14:38:11.143Z,5.15
2022-11-07T14:40:38.328Z,6.05
2022-11-07T14:43:05.152Z,7.43
2022-11-07T14:46:10.287Z,5.68
2022-11-07T14:48:28.318Z,4.13
2022-11-07T14:50:55.891Z,5.32
2022-11-07T14:53:28.150Z,5.63
2022-11-07T14:55:58.927Z,6.75
2022-11-07T14:58:28.438Z,6.75
2022-11-07T15:00:59.778Z,8.07
2022-11-07T15:03:32.822Z,6.85
2022-11-07T15:05:59.603Z,4.85
2022-11-07T15:08:28.218Z,3.72
2022-11-07T15:11:25.524Z,4.70
2022-11-07T15:13:53.123Z,5.20
2022-11-07T15:16:22.702Z,8.40
2022-11-07T15:18:58.700Z,5.75
2022-11-07T15:21:29.554Z,4.85
2022-11-07T15:23:56.900Z,7.93
2022-11-07T15:26:30.307Z,4.90
2022-11-07T15:29:14.281Z,4.05
2022-11-07T15:31:48.479Z,4.70
2022-11-07T15:34:33.682Z,4.40
2022-11-07T15:37:17.461Z,5.47
2022-11-07T15:39:44.183Z,11.63
2022-11-07T15:42:10.800Z,9.80
2022-11-07T15:44:38.429Z,9.20
2022-11-07T15:47:06.052Z,12.57
2022-11-07T15:49:34.108Z,6.55
2022-11-07T15:52:01.632Z,9.27
2022-11-07T15:54:36.057Z,12.56
2022-11-07T15:57:05.828Z,9.57
2022-11-07T15:59:35.665Z,14.98
2022-11-07T16:02:03.084Z,12.32
2022-11-07T16:04:39.639Z,8.18
2022-11-07T16:07:15.001Z,11.95
2022-11-07T16:09:42.633Z,8.00
2022-11-07T16:12:13.034Z,5.05
2022-11-07T16:14:44.427Z,9.55
2022-11-07T16:17:15.099Z,13.70
2022-11-07T16:19:44.955Z,9.68
2022-11-07T16:22:13.712Z,8.82
2022-11-07T16:24:40.274Z,7.78
2022-11-07T16:27:07.281Z,8.82
2022-11-07T16:29:33.920Z,8.60
2022-11-07T16:32:00.641Z,10.93
2022-11-07T16:34:27.190Z,8.60
2022-11-07T16:36:53.829Z,12.13
2022-11-07T16:39:22.621Z,10.52
2022-11-07T16:41:50.388Z,13.50
2022-11-07T16:44:21.583Z,16.25
2022-11-07T16:46:51.428Z,17.02
2022-11-07T16:49:30.776Z,9.55
2022-11-07T16:51:58.171Z,10.88
2022-11-07T16:54:25.081Z,6.78
2022-11-07T16:56:52.926Z,9.95
2022-11-07T16:59:22.362Z,7.85
2022-11-07T17:01:51.119Z,10.00
2022-11-07T17:04:17.851Z,8.23
2022-11-07T17:06:47.576Z,7.32
2022-11-07T17:09:16.857Z,7.50
2022-11-07T17:11:44.671Z,7.05
2022-11-07T17:14:11.782Z,11.25
2022-11-07T17:16:42.144Z,10.85
2022-11-07T17:19:12.818Z,10.45
2022-11-07T17:21:46.163Z,7.97
2022-11-07T17:24:13.943Z,13.85
2022-11-07T17:26:40.706Z,9.88
2022-11-07T17:29:10.850Z,8.57
2022-11-07T17:31:37.523Z,11.93
2022-11-07T17:34:04.232Z,14.77
2022-11-07T17:36:37.139Z,8.95
2022-11-07T17:39:10.953Z,8.43
2022-11-07T17:41:39.390Z,10.88
2022-11-07T17:44:06.315Z,7.47
2022-11-07T17:46:34.511Z,9.55
2022-11-07T17:49:04.039Z,10.57
2022-11-07T17:51:30.993Z,11.23
2022-11-07T17:53:58.251Z,11.70
2022-11-07T17:56:27.174Z,9.75
2022-11-07T17:58:57.299Z,7.60
2022-11-07T18:01:26.500Z,10.10
2022-11-07T18:03:54.701Z,10.95
2022-11-07T18:06:23.623Z,15.30
2022-11-07T18:08:52.873Z,13.10
2022-11-07T18:11:22.573Z,8.90
2022-11-07T18:13:51.134Z,9.57
2022-11-07T18:16:21.353Z,12.30
2022-11-07T18:18:48.427Z,10.60
2022-11-07T18:21:15.407Z,10.98
2022-11-07T18:23:43.015Z,10.30
2022-11-07T18:26:17.370Z,15.68
2022-11-07T18:28:44.494Z,18.80
2022-11-07T18:31:14.064Z,10.25
2022-11-07T18:33:41.672Z,13.90
2022-11-07T18:36:11.289Z,9.93
2022-11-07T18:38:38.531Z,9.07
2022-11-07T18:41:09.232Z,11.25
2022-11-07T18:43:36.882Z,11.30
2022-11-07T18:46:07.412Z,10.32
2022-11-07T18:48:34.783Z,9.25
2022-11-07T18:51:01.680Z,11.02
2022-11-07T18:53:29.784Z,13.07
2022-11-07T18:56:07.346Z,17.33
2022-11-07T18:58:36.486Z,16.15
2022-11-07T19:01:06.908Z,14.45
2022-11-07T19:03:35.042Z,14.88
2022-11-07T19:06:05.145Z,16.40
2022-11-07T19:08:33.932Z,20.60
2022-11-07T19:11:02.494Z,13.18
2022-11-07T19:13:29.471Z,19.52
2022-11-07T19:15:56.214Z,12.55
2022-11-07T19:18:22.843Z,15.68
2022-11-07T19:20:54.129Z,14.07
2022-11-07T19:23:20.873Z,14.00
2022-11-07T19:25:48.208Z,14.98
2022-11-07T19:28:15.603Z,15.35
2022-11-07T19:30:42.648Z,11.88
2022-11-07T19:33:09.788Z,11.73
2022-11-07T19:35:38.190Z,9.68
2022-11-07T19:38:09.025Z,14.77
2022-11-07T19:40:37.050Z,15.02
2022-11-07T19:43:04.815Z,10.77
2022-11-07T19:45:41.233Z,13.02
2022-11-07T19:48:08.355Z,8.77
2022-11-07T19:50:34.984Z,13.25
2022-11-07T19:53:01.623Z,16.13
2022-11-07T19:55:28.222Z,13.40
2022-11-07T19:57:54.902Z,22.67
2022-11-07T20:00:23.884Z,9.48
2022-11-07T20:02:50.745Z,14.52
2022-11-07T20:05:24.706Z,15.73
2022-11-07T20:07:55.297Z,13.10
2022-11-07T20:10:24.272Z,10.60
2022-11-07T20:12:51.219Z,12.45
2022-11-07T20:15:18.061Z,14.73
2022-11-07T20:17:44.701Z,13.02
2022-11-07T20:20:15.457Z,18.25
2022-11-07T20:22:46.535Z,14.95
2022-11-07T20:25:14.835Z,11.93
2022-11-07T20:27:41.916Z,14.65
2022-11-07T20:30:09.514Z,14.60
2022-11-07T20:32:36.170Z,12.00
2022-11-07T20:35:02.958Z,13.80
2022-11-07T20:37:29.581Z,11.75
2022-11-07T20:39:56.198Z,13.70
2022-11-07T20:42:23.022Z,9.70
2022-11-07T20:44:50.667Z,15.63
2022-11-07T20:47:17.416Z,15.77
2022-11-07T20:49:44.052Z,17.20
2022-11-07T20:52:10.819Z,17.30
2022-11-07T20:54:37.815Z,17.15
2022-11-07T20:57:05.251Z,14.90
2022-11-07T20:59:32.587Z,17.30
2022-11-07T21:02:03.412Z,17.65
2022-11-07T21:04:44.499Z,19.02
2022-11-07T21:07:19.993Z,12.82
2022-11-07T21:09:46.905Z,15.65
2022-11-07T21:12:13.667Z,14.20
2022-11-07T21:14:42.161Z,12.25
2022-11-07T21:17:09.703Z,15.00
2022-11-07T21:19:37.989Z,17.65
2022-11-07T21:22:06.243Z,15.98
2022-11-07T21:24:32.887Z,18.35
2022-11-07T21:26:59.512Z,11.98
2022-11-07T21:29:29.477Z,12.90
2022-11-07T21:31:57.368Z,14.90
2022-11-07T21:34:24.224Z,23.80
2022-11-07T21:36:50.854Z,16.27
2022-11-07T21:39:17.906Z,14.35
2022-11-07T21:41:44.837Z,18.38
2022-11-07T21:44:12.304Z,15.02
2022-11-07T21:46:41.222Z,18.20
2022-11-07T21:49:08.322Z,17.40
2022-11-07T21:51:35.665Z,19.17
2022-11-07T21:54:03.838Z,23.88
2022-11-07T21:56:33.605Z,18.52
2022-11-07T21:59:03.164Z,15.98
2022-11-07T22:01:34.849Z,14.50
2022-11-07T22:04:08.469Z,19.30
2022-11-07T22:06:37.895Z,16.35
2022-11-07T22:09:06.885Z,20.00
2022-11-07T22:11:33.568Z,17.85
2022-11-07T22:14:00.205Z,14.77
2022-11-07T22:16:27.341Z,21.33
2022-11-07T22:18:54.016Z,20.88
2022-11-07T22:21:23.223Z,12.50
2022-11-07T22:23:50.669Z,14.07
2022-11-07T22:26:19.544Z,18.33
2022-11-07T22:28:46.762Z,12.23
2022-11-07T22:31:16.968Z,14.93
2022-11-07T22:33:43.864Z,17.15
2022-11-07T22:36:12.040Z,18.83
2022-11-07T22:38:40.049Z,18.40
2022-11-07T22:41:09.267Z,17.00
2022-11-07T22:43:35.822Z,16.25
2022-11-07T22:46:05.765Z,17.05
2022-11-07T22:48:32.532Z,14.45
2022-11-07T22:51:15.872Z,14.10
2022-11-07T22:53:42.485Z,15.43
2022-11-07T22:56:13.617Z,17.40
2022-11-07T22:58:40.858Z,18.67
2022-11-07T23:01:17.982Z,17.35
2022-11-07T23:03:45.171Z,13.95
2022-11-07T23:06:11.857Z,15.35
2022-11-07T23:08:39.068Z,20.08
2022-11-07T23:14:02.007Z,17.50
2022-11-07T23:16:32.927Z,17.55
2022-11-07T23:19:02.165Z,19.45
2022-11-07T23:21:29.429Z,15.73
2022-11-07T23:23:57.703Z,16.77
2022-11-07T23:26:25.579Z,13.20
2022-11-07T23:28:52.283Z,14.85
2022-11-07T23:31:20.169Z,16.83
2022-11-07T23:33:46.912Z,14.27
2022-11-07T23:36:16.014Z,13.32
2022-11-07T23:38:44.164Z,15.32
2022-11-07T23:41:13.963Z,11.35
2022-11-07T23:43:40.877Z,16.10
2022-11-07T23:46:23.518Z,13.05
2022-11-07T23:49:09.411Z,13.15
2022-11-07T23:51:40.053Z,13.50
2022-11-07T23:54:22.530Z,16.13
2022-11-07T23:56:49.077Z,12.75
2022-11-07T23:59:31.010Z,11.60
